Login

giantone
1 activity; - Last training unit 25/10/2013
25/10/2013 Show to everybody Allenamento n. 51 32.94 569 02:16:42 14.46 Km\h
21/10/2013 Show to everybody Allenamento n. 50 29.56 274 01:14:44 23.73 Km\h
20/10/2013 Show to everybody Allenamento n. 49 31.62 346 02:03:24 15.38 Km\h
17/10/2013 Show to everybody Allenamento n. 48 29.92 308 01:32:15 19.46 Km\h
15/09/2013 Show to everybody Allenamento n. 47 37.4 552 02:03:09 18.22 Km\h
12/09/2013 Show to everybody Allenamento n. 46 26.1 600 02:14:22 11.65 Km\h
06/09/2013 Show to everybody Allenamento n. 44 37.93 924 02:43:00 13.96 Km\h
05/09/2013 Show to everybody Allenamento n. 43 27.39 414 01:21:52 20.08 Km\h
04/09/2013 Show to everybody Allenamento n. 42 19.3 331 00:58:15 19.88 Km\h
30/08/2013 Show to everybody Allenamento n. 41 17.51 361 00:52:01 20.2 Km\h
29/08/2013 Show to everybody Allenamento n. 40 34.33 484 01:28:48 23.2 Km\h
26/08/2013 Show to everybody Traccia Live recuperata del 26/08/2013 07:29:11 57.65 1510 05:42:47 10.09 Km\h
24/08/2013 Show to everybody Allenamento n. 38 31.84 270 01:28:14 21.65 Km\h
20/08/2013 Show to everybody Allenamento n. 37 30.96 555 02:05:00 14.86 Km\h
18/08/2013 Show to everybody Capanna San Lucio 33.55 1136 03:30:41 9.56 Km\h Specialized Camber 29
15/08/2013 Show to everybody Allenamento n. 36 36.3 1107 03:38:18 9.98 Km\h
13/08/2013 Show to everybody Allenamento n. 35 23.46 416 02:02:08 11.53 Km\h
11/08/2013 Show to everybody Allenamento n. 34 23.17 426 01:50:50 12.54 Km\h
09/08/2013 Show to everybody Allenamento n. 33 21.93 796 02:28:00 8.89 Km\h
06/08/2013 Show to everybody Allenamento n. 32 31.44 298 02:00:37 15.64 Km\h
20/07/2013 Show to everybody Allenamento n. 31 28.46 459 01:55:13 14.82 Km\h
16/07/2013 Show to everybody Allenamento n. 30 31.31 273 01:42:11 18.39 Km\h
15/07/2013 Show to everybody Allenamento n. 29 23.55 335 01:38:37 14.33 Km\h
10/07/2013 Show to everybody Allenamento n. 28 31.23 273 01:44:32 17.92 Km\h
07/07/2013 Show to everybody Allenamento n. 27 31.63 694 03:04:23 10.29 Km\h
02/07/2013 Show to everybody Allenamento n. 26 31.44 289 01:51:00 16.99 Km\h
27/06/2013 Show to everybody Allenamento n. 25 23.37 195 01:04:25 21.77 Km\h
25/06/2013 Show to everybody Allenamento n. 24 31.97 293 01:29:05 21.53 Km\h
23/06/2013 Show to everybody Allenamento n. 23 45.42 1121 04:11:39 10.83 Km\h
18/06/2013 Show to everybody Allenamento n. 22 9.34 159 00:47:57 11.69 Km\h
16/06/2013 Show to everybody Allenamento n. 21 29.78 510 02:28:48 12.01 Km\h
13/06/2013 Show to everybody Allenamento n. 20 25.43 448 01:47:02 14.26 Km\h
11/06/2013 Show to everybody Allenamento n. 19 19.18 143 00:51:04 22.54 Km\h
10/06/2013 Show to everybody Allenamento n. 18 30.01 480 01:45:54 17 Km\h
08/06/2013 Show to everybody Allenamento n. 17 31 616 03:00:05 10.33 Km\h
04/06/2013 Show to everybody Allenamento n. 16 24.26 365 01:11:55 20.24 Km\h
03/06/2013 Show to everybody Allenamento n. 15 23.57 199 01:06:17 21.33 Km\h
02/06/2013 Show to everybody Allenamento n. 14 36.79 741 02:32:46 14.45 Km\h
23/05/2013 Show to everybody Allenamento n. 13 25.76 233 01:08:10 22.67 Km\h
18/05/2013 Show to everybody Allenamento n. 12 23.57 415 01:20:38 17.54 Km\h
14/05/2013 Show to everybody Allenamento n. 11 16.82 189 01:28:50 11.36 Km\h
13/05/2013 Show to everybody Allenamento n. 10 29.84 277 01:43:35 17.28 Km\h
09/05/2013 Show to everybody Allenamento n. 9 39.49 879 03:11:34 12.37 Km\h
04/05/2013 Show to everybody Allenamento n. 8 39.14 931 03:07:18 12.54 Km\h
02/05/2013 Show to everybody Allenamento n. 7 37.44 1046 03:13:29 11.61 Km\h
28/04/2013 Show to everybody Allenamento n. 6 25.06 413 01:21:52 18.37 Km\h
25/04/2013 Show to everybody Allenamento n. 5 31.7 342 02:32:48 12.45 Km\h
21/04/2013 Show to everybody Allenamento n. 4 24.2 362 01:11:42 20.25 Km\h
18/04/2013 Show to everybody Allenamento n. 2 15.26 143 00:43:20 21.13 Km\h
18/04/2013 Show to everybody Allenamento n. 3 9.89 116 00:34:40 17.12 Km\h
16/04/2013 Show to everybody Allenamento n. 1 26.55 527 01:43:06 15.45 Km\h
07/04/2013 Show to everybody Allenamento Via Cavour, Medole 0.16 0 00:00:25 23.71 Km\h Specialized Camber 29
07/04/2013 Show to everybody Allenamento Via Matteotti, Medole 1.08 0 00:06:13 10.43 Km\h Specialized Camber 29
Training units 0
Kilometers 0 Km
Vertical gain 0 mt
Hours of riding 00:00:00
Average speed 0 Km/h
average HR 127
Points 1005
Live Tracking »

Specialized Camber 29 07:02:31 82.74 Km
Giant 26 XTR composite 0 Km

 
If you stop following this users you will not be able to compare your trainings with his

Now you follow this users and you can compare your trainings


MTB-Forum.it | 2012-2019 Training Camp v.1.6 rev 05